sensor_id;sensor_type;location;lat;lon;timestamp;temperature;humidity
20171;DHT22;10245;51.344;6.620;2023-02-15T00:00:48;4.00;85.20
20171;DHT22;10245;51.344;6.620;2023-02-15T00:03:12;3.90;85.20
20171;DHT22;10245;51.344;6.620;2023-02-15T00:05:35;3.90;85.30
20171;DHT22;10245;51.344;6.620;2023-02-15T00:07:58;3.90;85.40
20171;DHT22;10245;51.344;6.620;2023-02-15T00:10:22;3.80;85.50
20171;DHT22;10245;51.344;6.620;2023-02-15T00:12:45;3.80;85.50
20171;DHT22;10245;51.344;6.620;2023-02-15T00:15:09;3.80;85.50
20171;DHT22;10245;51.344;6.620;2023-02-15T00:17:35;3.80;85.40
20171;DHT22;10245;51.344;6.620;2023-02-15T00:19:58;3.90;85.40
20171;DHT22;10245;51.344;6.620;2023-02-15T00:22:22;3.90;85.20
20171;DHT22;10245;51.344;6.620;2023-02-15T00:24:45;3.80;85.40
20171;DHT22;10245;51.344;6.620;2023-02-15T00:27:08;3.80;85.40
20171;DHT22;10245;51.344;6.620;2023-02-15T00:29:33;3.80;85.60
20171;DHT22;10245;51.344;6.620;2023-02-15T00:31:56;3.80;85.40
20171;DHT22;10245;51.344;6.620;2023-02-15T00:34:23;3.80;85.20
20171;DHT22;10245;51.344;6.620;2023-02-15T00:36:47;3.70;85.30
20171;DHT22;10245;51.344;6.620;2023-02-15T00:39:11;3.70;85.50
20171;DHT22;10245;51.344;6.620;2023-02-15T00:41:35;3.60;85.60
20171;DHT22;10245;51.344;6.620;2023-02-15T00:43:59;3.60;85.60
20171;DHT22;10245;51.344;6.620;2023-02-15T00:46:24;3.50;85.60
20171;DHT22;10245;51.344;6.620;2023-02-15T00:48:47;3.50;85.60
20171;DHT22;10245;51.344;6.620;2023-02-15T00:51:11;3.50;85.70
20171;DHT22;10245;51.344;6.620;2023-02-15T00:53:35;3.50;85.80
20171;DHT22;10245;51.344;6.620;2023-02-15T00:55:58;3.50;85.80
20171;DHT22;10245;51.344;6.620;2023-02-15T00:58:22;3.50;85.80
20171;DHT22;10245;51.344;6.620;2023-02-15T01:00:47;3.50;85.90
20171;DHT22;10245;51.344;6.620;2023-02-15T01:03:12;3.40;85.90
20171;DHT22;10245;51.344;6.620;2023-02-15T01:05:36;3.40;86.20
20171;DHT22;10245;51.344;6.620;2023-02-15T01:08:01;3.40;85.80
20171;DHT22;10245;51.344;6.620;2023-02-15T01:10:26;3.30;86.10
20171;DHT22;10245;51.344;6.620;2023-02-15T01:12:50;3.30;86.20
20171;DHT22;10245;51.344;6.620;2023-02-15T01:15:13;3.30;86.40
20171;DHT22;10245;51.344;6.620;2023-02-15T01:17:36;3.30;86.10
20171;DHT22;10245;51.344;6.620;2023-02-15T01:20:00;3.30;86.30
20171;DHT22;10245;51.344;6.620;2023-02-15T01:22:23;3.30;86.00
20171;DHT22;10245;51.344;6.620;2023-02-15T01:24:50;3.20;86.30
20171;DHT22;10245;51.344;6.620;2023-02-15T01:27:13;3.30;86.30
20171;DHT22;10245;51.344;6.620;2023-02-15T01:29:37;3.30;86.10
20171;DHT22;10245;51.344;6.620;2023-02-15T01:32:01;3.20;86.10
20171;DHT22;10245;51.344;6.620;2023-02-15T01:34:24;3.20;86.40
20171;DHT22;10245;51.344;6.620;2023-02-15T01:36:47;3.10;86.60
20171;DHT22;10245;51.344;6.620;2023-02-15T01:39:11;3.10;86.50
20171;DHT22;10245;51.344;6.620;2023-02-15T01:41:35;3.10;86.70
20171;DHT22;10245;51.344;6.620;2023-02-15T01:44:00;3.10;86.60
20171;DHT22;10245;51.344;6.620;2023-02-15T01:46:28;3.00;86.60
20171;DHT22;10245;51.344;6.620;2023-02-15T01:48:56;3.10;86.70
20171;DHT22;10245;51.344;6.620;2023-02-15T01:51:24;3.00;86.60
20171;DHT22;10245;51.344;6.620;2023-02-15T01:53:54;3.00;87.00
20171;DHT22;10245;51.344;6.620;2023-02-15T01:56:23;3.10;87.00
20171;DHT22;10245;51.344;6.620;2023-02-15T01:58:49;3.00;86.90
20171;DHT22;10245;51.344;6.620;2023-02-15T02:01:14;3.00;86.80
20171;DHT22;10245;51.344;6.620;2023-02-15T02:03:43;3.00;86.90
20171;DHT22;10245;51.344;6.620;2023-02-15T02:06:16;3.00;86.80
20171;DHT22;10245;51.344;6.620;2023-02-15T02:08:41;3.00;86.60
20171;DHT22;10245;51.344;6.620;2023-02-15T02:11:10;3.00;86.80
20171;DHT22;10245;51.344;6.620;2023-02-15T02:13:33;3.00;87.00
20171;DHT22;10245;51.344;6.620;2023-02-15T02:16:05;2.90;86.80
20171;DHT22;10245;51.344;6.620;2023-02-15T02:18:41;3.00;87.00
20171;DHT22;10245;51.344;6.620;2023-02-15T02:21:42;3.00;86.90
20171;DHT22;10245;51.344;6.620;2023-02-15T02:24:42;3.00;86.90
20171;DHT22;10245;51.344;6.620;2023-02-15T02:27:30;3.00;86.90
20171;DHT22;10245;51.344;6.620;2023-02-15T02:33:25;2.90;86.90
20171;DHT22;10245;51.344;6.620;2023-02-15T02:36:03;2.90;87.10
20171;DHT22;10245;51.344;6.620;2023-02-15T02:38:47;2.80;87.20
20171;DHT22;10245;51.344;6.620;2023-02-15T02:41:22;2.80;87.30
20171;DHT22;10245;51.344;6.620;2023-02-15T02:43:51;2.80;87.60
20171;DHT22;10245;51.344;6.620;2023-02-15T02:46:20;2.70;87.40
20171;DHT22;10245;51.344;6.620;2023-02-15T02:48:48;2.80;87.70
20171;DHT22;10245;51.344;6.620;2023-02-15T02:51:12;2.70;87.60
20171;DHT22;10245;51.344;6.620;2023-02-15T02:53:36;2.70;87.60
20171;DHT22;10245;51.344;6.620;2023-02-15T02:56:05;2.70;87.50
20171;DHT22;10245;51.344;6.620;2023-02-15T02:58:44;2.70;87.50
20171;DHT22;10245;51.344;6.620;2023-02-15T03:01:14;2.70;87.40
20171;DHT22;10245;51.344;6.620;2023-02-15T03:03:42;2.70;87.50
20171;DHT22;10245;51.344;6.620;2023-02-15T03:06:11;2.70;87.50
20171;DHT22;10245;51.344;6.620;2023-02-15T03:08:41;2.60;87.60
20171;DHT22;10245;51.344;6.620;2023-02-15T03:11:06;2.70;87.60
20171;DHT22;10245;51.344;6.620;2023-02-15T03:13:32;2.70;87.30
20171;DHT22;10245;51.344;6.620;2023-02-15T03:15:56;2.70;87.40
20171;DHT22;10245;51.344;6.620;2023-02-15T03:18:41;2.60;87.40
20171;DHT22;10245;51.344;6.620;2023-02-15T03:21:08;2.70;87.40
20171;DHT22;10245;51.344;6.620;2023-02-15T03:23:43;2.70;87.50
20171;DHT22;10245;51.344;6.620;2023-02-15T03:26:08;2.60;87.40
20171;DHT22;10245;51.344;6.620;2023-02-15T03:28:36;2.50;87.40
20171;DHT22;10245;51.344;6.620;2023-02-15T03:31:03;2.50;87.50
20171;DHT22;10245;51.344;6.620;2023-02-15T03:33:28;2.50;87.70
20171;DHT22;10245;51.344;6.620;2023-02-15T03:35:57;2.50;87.70
20171;DHT22;10245;51.344;6.620;2023-02-15T03:38:30;2.50;87.90
20171;DHT22;10245;51.344;6.620;2023-02-15T03:40:58;2.50;87.70
20171;DHT22;10245;51.344;6.620;2023-02-15T03:43:40;2.50;87.80
20171;DHT22;10245;51.344;6.620;2023-02-15T03:46:11;2.50;87.90
20171;DHT22;10245;51.344;6.620;2023-02-15T03:48:39;2.50;88.00
20171;DHT22;10245;51.344;6.620;2023-02-15T03:51:08;2.50;87.90
20171;DHT22;10245;51.344;6.620;2023-02-15T03:53:52;2.50;87.70
20171;DHT22;10245;51.344;6.620;2023-02-15T03:56:17;2.50;87.70
20171;DHT22;10245;51.344;6.620;2023-02-15T03:58:40;2.50;87.90
20171;DHT22;10245;51.344;6.620;2023-02-15T04:01:25;2.50;87.80
20171;DHT22;10245;51.344;6.620;2023-02-15T04:04:11;2.40;87.70
20171;DHT22;10245;51.344;6.620;2023-02-15T04:06:39;2.50;87.60
20171;DHT22;10245;51.344;6.620;2023-02-15T04:09:04;2.50;87.70
20171;DHT22;10245;51.344;6.620;2023-02-15T04:11:41;2.50;87.60
20171;DHT22;10245;51.344;6.620;2023-02-15T04:14:05;2.40;87.80
20171;DHT22;10245;51.344;6.620;2023-02-15T04:16:48;2.40;87.70
20171;DHT22;10245;51.344;6.620;2023-02-15T04:19:11;2.40;87.80
20171;DHT22;10245;51.344;6.620;2023-02-15T04:21:52;2.40;88.00
20171;DHT22;10245;51.344;6.620;2023-02-15T04:24:34;2.40;88.00
20171;DHT22;10245;51.344;6.620;2023-02-15T04:27:15;2.40;88.00
20171;DHT22;10245;51.344;6.620;2023-02-15T04:29:38;2.30;88.00
20171;DHT22;10245;51.344;6.620;2023-02-15T04:32:02;2.40;88.20
20171;DHT22;10245;51.344;6.620;2023-02-15T04:34:25;2.30;87.90
20171;DHT22;10245;51.344;6.620;2023-02-15T04:36:49;2.30;88.00
20171;DHT22;10245;51.344;6.620;2023-02-15T04:39:13;2.20;88.00
20171;DHT22;10245;51.344;6.620;2023-02-15T04:41:38;2.20;88.10
20171;DHT22;10245;51.344;6.620;2023-02-15T04:44:01;2.20;88.00
20171;DHT22;10245;51.344;6.620;2023-02-15T04:46:25;2.20;88.20
20171;DHT22;10245;51.344;6.620;2023-02-15T04:48:49;2.20;88.20
20171;DHT22;10245;51.344;6.620;2023-02-15T04:51:12;2.20;88.20
20171;DHT22;10245;51.344;6.620;2023-02-15T04:53:35;2.10;88.20
20171;DHT22;10245;51.344;6.620;2023-02-15T04:55:59;2.20;88.20
20171;DHT22;10245;51.344;6.620;2023-02-15T04:58:24;2.20;88.20
20171;DHT22;10245;51.344;6.620;2023-02-15T05:00:48;2.20;88.20
20171;DHT22;10245;51.344;6.620;2023-02-15T05:03:12;2.10;88.10
20171;DHT22;10245;51.344;6.620;2023-02-15T05:05:35;2.10;88.20
20171;DHT22;10245;51.344;6.620;2023-02-15T05:07:58;2.10;88.20
20171;DHT22;10245;51.344;6.620;2023-02-15T05:10:22;2.20;88.30
20171;DHT22;10245;51.344;6.620;2023-02-15T05:12:45;2.20;88.20
20171;DHT22;10245;51.344;6.620;2023-02-15T05:15:10;2.10;88.10
20171;DHT22;10245;51.344;6.620;2023-02-15T05:17:33;2.10;88.00
20171;DHT22;10245;51.344;6.620;2023-02-15T05:19:57;2.10;88.10
20171;DHT22;10245;51.344;6.620;2023-02-15T05:22:20;2.10;88.20
20171;DHT22;10245;51.344;6.620;2023-02-15T05:24:43;2.10;88.20
20171;DHT22;10245;51.344;6.620;2023-02-15T05:27:24;2.00;88.20
20171;DHT22;10245;51.344;6.620;2023-02-15T05:30:06;2.00;88.20
20171;DHT22;10245;51.344;6.620;2023-02-15T05:32:34;2.00;88.20
20171;DHT22;10245;51.344;6.620;2023-02-15T05:34:58;2.00;88.30
20171;DHT22;10245;51.344;6.620;2023-02-15T05:37:21;2.00;88.30
20171;DHT22;10245;51.344;6.620;2023-02-15T05:39:45;2.00;88.30
20171;DHT22;10245;51.344;6.620;2023-02-15T05:42:08;2.10;88.30
20171;DHT22;10245;51.344;6.620;2023-02-15T05:44:32;2.10;88.40
20171;DHT22;10245;51.344;6.620;2023-02-15T05:46:55;2.00;88.30
20171;DHT22;10245;51.344;6.620;2023-02-15T05:49:20;2.00;88.30
20171;DHT22;10245;51.344;6.620;2023-02-15T05:51:43;2.00;88.30
20171;DHT22;10245;51.344;6.620;2023-02-15T05:54:07;2.00;88.30
20171;DHT22;10245;51.344;6.620;2023-02-15T05:56:30;2.00;88.20
20171;DHT22;10245;51.344;6.620;2023-02-15T05:58:53;2.00;88.50
20171;DHT22;10245;51.344;6.620;2023-02-15T06:01:18;2.00;88.50
20171;DHT22;10245;51.344;6.620;2023-02-15T06:03:44;2.00;88.50
20171;DHT22;10245;51.344;6.620;2023-02-15T06:06:10;2.00;88.50
20171;DHT22;10245;51.344;6.620;2023-02-15T06:08:34;2.00;88.50
20171;DHT22;10245;51.344;6.620;2023-02-15T06:10:58;2.00;88.50
20171;DHT22;10245;51.344;6.620;2023-02-15T06:13:22;2.00;88.40
20171;DHT22;10245;51.344;6.620;2023-02-15T06:15:45;2.00;88.20
20171;DHT22;10245;51.344;6.620;2023-02-15T06:18:09;2.00;88.30
20171;DHT22;10245;51.344;6.620;2023-02-15T06:20:32;2.00;88.20
20171;DHT22;10245;51.344;6.620;2023-02-15T06:22:57;2.00;88.20
20171;DHT22;10245;51.344;6.620;2023-02-15T06:25:20;2.00;88.10
20171;DHT22;10245;51.344;6.620;2023-02-15T06:27:44;2.00;88.10
20171;DHT22;10245;51.344;6.620;2023-02-15T06:30:09;2.00;88.20
20171;DHT22;10245;51.344;6.620;2023-02-15T06:32:33;1.90;88.00
20171;DHT22;10245;51.344;6.620;2023-02-15T06:34:56;1.90;88.10
20171;DHT22;10245;51.344;6.620;2023-02-15T06:37:19;1.90;87.90
20171;DHT22;10245;51.344;6.620;2023-02-15T06:39:44;2.00;88.10
20171;DHT22;10245;51.344;6.620;2023-02-15T06:42:07;2.00;88.10
20171;DHT22;10245;51.344;6.620;2023-02-15T06:44:31;2.00;87.90
20171;DHT22;10245;51.344;6.620;2023-02-15T06:46:54;2.00;87.80
20171;DHT22;10245;51.344;6.620;2023-02-15T06:49:18;2.00;87.90
20171;DHT22;10245;51.344;6.620;2023-02-15T06:51:41;2.00;88.00
20171;DHT22;10245;51.344;6.620;2023-02-15T06:54:04;2.00;87.80
20171;DHT22;10245;51.344;6.620;2023-02-15T06:56:29;2.00;87.60
20171;DHT22;10245;51.344;6.620;2023-02-15T06:58:53;2.00;87.70
20171;DHT22;10245;51.344;6.620;2023-02-15T07:01:16;1.90;87.70
20171;DHT22;10245;51.344;6.620;2023-02-15T07:03:39;2.00;87.60
20171;DHT22;10245;51.344;6.620;2023-02-15T07:06:04;2.00;87.50
20171;DHT22;10245;51.344;6.620;2023-02-15T07:08:30;2.00;87.70
20171;DHT22;10245;51.344;6.620;2023-02-15T07:10:54;2.00;87.90
20171;DHT22;10245;51.344;6.620;2023-02-15T07:13:39;2.00;87.90
20171;DHT22;10245;51.344;6.620;2023-02-15T07:16:04;1.90;87.90
20171;DHT22;10245;51.344;6.620;2023-02-15T07:18:27;2.00;87.80
20171;DHT22;10245;51.344;6.620;2023-02-15T07:20:51;1.90;87.80
20171;DHT22;10245;51.344;6.620;2023-02-15T07:23:14;2.00;87.80
20171;DHT22;10245;51.344;6.620;2023-02-15T07:25:37;2.00;87.70
20171;DHT22;10245;51.344;6.620;2023-02-15T07:28:02;2.00;87.60
20171;DHT22;10245;51.344;6.620;2023-02-15T07:30:29;2.00;87.60
20171;DHT22;10245;51.344;6.620;2023-02-15T07:32:55;2.00;87.60
20171;DHT22;10245;51.344;6.620;2023-02-15T07:35:51;2.00;87.40
20171;DHT22;10245;51.344;6.620;2023-02-15T07:38:15;2.10;87.30
20171;DHT22;10245;51.344;6.620;2023-02-15T07:40:39;2.10;87.30
20171;DHT22;10245;51.344;6.620;2023-02-15T07:43:02;2.10;87.20
20171;DHT22;10245;51.344;6.620;2023-02-15T07:45:27;2.10;87.20
20171;DHT22;10245;51.344;6.620;2023-02-15T07:47:51;2.20;87.10
20171;DHT22;10245;51.344;6.620;2023-02-15T07:50:14;2.20;86.90
20171;DHT22;10245;51.344;6.620;2023-02-15T07:52:38;2.30;86.80
20171;DHT22;10245;51.344;6.620;2023-02-15T07:55:01;2.40;86.70
20171;DHT22;10245;51.344;6.620;2023-02-15T07:57:25;2.50;86.60
20171;DHT22;10245;51.344;6.620;2023-02-15T07:59:49;2.60;86.30
20171;DHT22;10245;51.344;6.620;2023-02-15T08:02:14;2.80;86.20
20171;DHT22;10245;51.344;6.620;2023-02-15T08:04:39;2.90;85.70
20171;DHT22;10245;51.344;6.620;2023-02-15T08:07:02;2.80;85.00
20171;DHT22;10245;51.344;6.620;2023-02-15T08:09:26;2.90;85.30
20171;DHT22;10245;51.344;6.620;2023-02-15T08:11:50;3.00;85.40
20171;DHT22;10245;51.344;6.620;2023-02-15T08:14:14;3.00;85.10
20171;DHT22;10245;51.344;6.620;2023-02-15T08:16:41;3.20;85.00
20171;DHT22;10245;51.344;6.620;2023-02-15T08:19:08;3.20;84.90
20171;DHT22;10245;51.344;6.620;2023-02-15T08:21:34;3.30;84.70
20171;DHT22;10245;51.344;6.620;2023-02-15T08:23:58;3.40;84.40
20171;DHT22;10245;51.344;6.620;2023-02-15T08:26:23;3.50;83.90
20171;DHT22;10245;51.344;6.620;2023-02-15T08:28:47;3.50;83.60
20171;DHT22;10245;51.344;6.620;2023-02-15T08:31:13;3.70;84.00
20171;DHT22;10245;51.344;6.620;2023-02-15T08:33:38;3.80;83.30
20171;DHT22;10245;51.344;6.620;2023-02-15T08:36:05;3.60;82.30
20171;DHT22;10245;51.344;6.620;2023-02-15T08:38:30;3.90;83.10
20171;DHT22;10245;51.344;6.620;2023-02-15T08:40:54;3.90;82.70
20171;DHT22;10245;51.344;6.620;2023-02-15T08:43:17;3.80;81.90
20171;DHT22;10245;51.344;6.620;2023-02-15T08:45:41;4.00;82.10
20171;DHT22;10245;51.344;6.620;2023-02-15T08:48:04;3.70;82.00
20171;DHT22;10245;51.344;6.620;2023-02-15T08:50:28;3.80;81.40
20171;DHT22;10245;51.344;6.620;2023-02-15T08:52:52;3.80;81.60
20171;DHT22;10245;51.344;6.620;2023-02-15T08:55:16;4.10;82.60
20171;DHT22;10245;51.344;6.620;2023-02-15T08:57:39;4.40;81.60
20171;DHT22;10245;51.344;6.620;2023-02-15T09:00:07;4.20;80.60
20171;DHT22;10245;51.344;6.620;2023-02-15T09:02:31;4.30;80.90
20171;DHT22;10245;51.344;6.620;2023-02-15T09:04:55;4.30;80.20
20171;DHT22;10245;51.344;6.620;2023-02-15T09:07:18;4.50;80.90
20171;DHT22;10245;51.344;6.620;2023-02-15T09:09:43;4.60;79.50
20171;DHT22;10245;51.344;6.620;2023-02-15T09:12:07;4.70;78.70
20171;DHT22;10245;51.344;6.620;2023-02-15T09:14:30;4.70;79.50
20171;DHT22;10245;51.344;6.620;2023-02-15T09:16:54;4.70;78.70
20171;DHT22;10245;51.344;6.620;2023-02-15T09:19:19;4.80;79.70
20171;DHT22;10245;51.344;6.620;2023-02-15T09:21:44;4.90;79.40
20171;DHT22;10245;51.344;6.620;2023-02-15T09:24:10;5.10;77.90
20171;DHT22;10245;51.344;6.620;2023-02-15T09:26:38;5.00;78.50
20171;DHT22;10245;51.344;6.620;2023-02-15T09:29:03;5.20;78.60
20171;DHT22;10245;51.344;6.620;2023-02-15T09:31:28;5.40;77.30
20171;DHT22;10245;51.344;6.620;2023-02-15T09:33:53;5.40;77.50
20171;DHT22;10245;51.344;6.620;2023-02-15T09:36:18;5.50;77.50
20171;DHT22;10245;51.344;6.620;2023-02-15T09:38:43;5.70;76.30
20171;DHT22;10245;51.344;6.620;2023-02-15T09:41:18;5.70;75.90
20171;DHT22;10245;51.344;6.620;2023-02-15T09:44:06;5.90;76.80
20171;DHT22;10245;51.344;6.620;2023-02-15T09:47:05;5.80;76.20
20171;DHT22;10245;51.344;6.620;2023-02-15T09:49:42;6.00;76.10
20171;DHT22;10245;51.344;6.620;2023-02-15T09:52:33;6.00;75.70
20171;DHT22;10245;51.344;6.620;2023-02-15T09:55:18;6.10;75.20
20171;DHT22;10245;51.344;6.620;2023-02-15T09:57:53;6.20;75.40
20171;DHT22;10245;51.344;6.620;2023-02-15T10:00:30;6.00;74.70
20171;DHT22;10245;51.344;6.620;2023-02-15T10:03:23;6.00;74.80
20171;DHT22;10245;51.344;6.620;2023-02-15T10:06:09;6.30;75.50
20171;DHT22;10245;51.344;6.620;2023-02-15T10:09:02;6.40;74.20
20171;DHT22;10245;51.344;6.620;2023-02-15T10:11:42;5.90;75.00
20171;DHT22;10245;51.344;6.620;2023-02-15T10:14:42;6.50;74.70
20171;DHT22;10245;51.344;6.620;2023-02-15T10:17:26;6.50;74.60
20171;DHT22;10245;51.344;6.620;2023-02-15T10:20:06;6.70;73.80
20171;DHT22;10245;51.344;6.620;2023-02-15T10:22:41;6.70;73.80
20171;DHT22;10245;51.344;6.620;2023-02-15T10:25:21;6.60;74.40
20171;DHT22;10245;51.344;6.620;2023-02-15T10:27:52;7.00;73.90
20171;DHT22;10245;51.344;6.620;2023-02-15T10:30:18;7.00;73.30
20171;DHT22;10245;51.344;6.620;2023-02-15T10:32:53;6.90;73.70
20171;DHT22;10245;51.344;6.620;2023-02-15T10:35:25;7.20;72.80
20171;DHT22;10245;51.344;6.620;2023-02-15T10:38:02;7.20;72.70
20171;DHT22;10245;51.344;6.620;2023-02-15T10:40:36;7.20;72.70
20171;DHT22;10245;51.344;6.620;2023-02-15T10:43:13;7.30;72.70
20171;DHT22;10245;51.344;6.620;2023-02-15T10:45:51;7.50;72.70
20171;DHT22;10245;51.344;6.620;2023-02-15T10:48:41;7.40;72.20
20171;DHT22;10245;51.344;6.620;2023-02-15T10:51:18;7.80;71.50
20171;DHT22;10245;51.344;6.620;2023-02-15T10:54:04;7.60;70.00
20171;DHT22;10245;51.344;6.620;2023-02-15T10:56:36;7.70;71.60
20171;DHT22;10245;51.344;6.620;2023-02-15T10:59:18;8.00;72.00
20171;DHT22;10245;51.344;6.620;2023-02-15T11:01:53;8.10;70.60
20171;DHT22;10245;51.344;6.620;2023-02-15T11:04:47;8.00;70.50
20171;DHT22;10245;51.344;6.620;2023-02-15T11:07:21;8.00;70.10
20171;DHT22;10245;51.344;6.620;2023-02-15T11:09:49;8.20;70.70
20171;DHT22;10245;51.344;6.620;2023-02-15T11:12:17;8.10;69.70
20171;DHT22;10245;51.344;6.620;2023-02-15T11:14:47;8.20;70.30
20171;DHT22;10245;51.344;6.620;2023-02-15T11:17:18;8.40;70.40
20171;DHT22;10245;51.344;6.620;2023-02-15T11:19:51;8.30;69.60
20171;DHT22;10245;51.344;6.620;2023-02-15T11:22:18;8.40;69.30
20171;DHT22;10245;51.344;6.620;2023-02-15T11:24:43;8.50;70.10
20171;DHT22;10245;51.344;6.620;2023-02-15T11:27:19;8.60;69.30
20171;DHT22;10245;51.344;6.620;2023-02-15T11:29:53;8.70;69.40
20171;DHT22;10245;51.344;6.620;2023-02-15T11:32:22;8.80;69.40
20171;DHT22;10245;51.344;6.620;2023-02-15T11:34:52;8.90;67.70
20171;DHT22;10245;51.344;6.620;2023-02-15T11:37:20;9.00;68.30
20171;DHT22;10245;51.344;6.620;2023-02-15T11:39:51;9.20;67.70
20171;DHT22;10245;51.344;6.620;2023-02-15T11:42:20;9.00;67.10
20171;DHT22;10245;51.344;6.620;2023-02-15T11:44:50;9.10;69.00
20171;DHT22;10245;51.344;6.620;2023-02-15T11:47:19;9.40;66.70
20171;DHT22;10245;51.344;6.620;2023-02-15T11:49:45;9.30;67.50
20171;DHT22;10245;51.344;6.620;2023-02-15T11:52:13;9.50;66.50
20171;DHT22;10245;51.344;6.620;2023-02-15T11:54:41;9.70;67.00
20171;DHT22;10245;51.344;6.620;2023-02-15T11:57:12;9.70;65.20
20171;DHT22;10245;51.344;6.620;2023-02-15T11:59:38;9.70;65.70
20171;DHT22;10245;51.344;6.620;2023-02-15T12:02:15;9.60;66.80
20171;DHT22;10245;51.344;6.620;2023-02-15T12:04:44;9.90;66.70
20171;DHT22;10245;51.344;6.620;2023-02-15T12:07:15;10.00;66.00
20171;DHT22;10245;51.344;6.620;2023-02-15T12:09:48;9.90;65.30
20171;DHT22;10245;51.344;6.620;2023-02-15T12:12:21;10.10;64.80
20171;DHT22;10245;51.344;6.620;2023-02-15T12:14:47;10.00;64.60
20171;DHT22;10245;51.344;6.620;2023-02-15T12:17:13;10.10;63.70
20171;DHT22;10245;51.344;6.620;2023-02-15T12:19:38;10.20;64.00
20171;DHT22;10245;51.344;6.620;2023-02-15T12:22:04;9.90;64.50
20171;DHT22;10245;51.344;6.620;2023-02-15T12:24:37;10.10;66.20
20171;DHT22;10245;51.344;6.620;2023-02-15T12:27:03;10.30;64.10
20171;DHT22;10245;51.344;6.620;2023-02-15T12:29:30;10.40;65.20
20171;DHT22;10245;51.344;6.620;2023-02-15T12:31:54;10.50;62.30
20171;DHT22;10245;51.344;6.620;2023-02-15T12:34:21;10.60;63.10
20171;DHT22;10245;51.344;6.620;2023-02-15T12:36:47;10.80;63.20
20171;DHT22;10245;51.344;6.620;2023-02-15T12:39:21;11.00;64.50
20171;DHT22;10245;51.344;6.620;2023-02-15T12:41:59;10.60;61.60
20171;DHT22;10245;51.344;6.620;2023-02-15T12:44:25;10.90;61.30
20171;DHT22;10245;51.344;6.620;2023-02-15T12:46:56;11.00;62.20
20171;DHT22;10245;51.344;6.620;2023-02-15T12:49:21;11.00;61.80
20171;DHT22;10245;51.344;6.620;2023-02-15T12:51:47;11.00;62.00
20171;DHT22;10245;51.344;6.620;2023-02-15T12:54:34;11.10;61.40
20171;DHT22;10245;51.344;6.620;2023-02-15T12:57:22;11.30;61.70
20171;DHT22;10245;51.344;6.620;2023-02-15T12:59:50;11.10;60.00
20171;DHT22;10245;51.344;6.620;2023-02-15T13:02:20;11.30;61.60
20171;DHT22;10245;51.344;6.620;2023-02-15T13:04:48;11.50;59.10
20171;DHT22;10245;51.344;6.620;2023-02-15T13:07:13;11.50;59.70
20171;DHT22;10245;51.344;6.620;2023-02-15T13:09:38;11.60;60.40
20171;DHT22;10245;51.344;6.620;2023-02-15T13:12:14;11.70;60.00
20171;DHT22;10245;51.344;6.620;2023-02-15T13:14:44;11.60;59.10
20171;DHT22;10245;51.344;6.620;2023-02-15T13:17:09;11.50;59.10
20171;DHT22;10245;51.344;6.620;2023-02-15T13:19:36;11.60;60.00
20171;DHT22;10245;51.344;6.620;2023-02-15T13:22:08;11.70;59.30
20171;DHT22;10245;51.344;6.620;2023-02-15T13:24:37;11.60;59.70
20171;DHT22;10245;51.344;6.620;2023-02-15T13:27:02;11.60;60.90
20171;DHT22;10245;51.344;6.620;2023-02-15T13:29:38;11.60;59.30
20171;DHT22;10245;51.344;6.620;2023-02-15T13:32:07;11.60;59.70
20171;DHT22;10245;51.344;6.620;2023-02-15T13:34:36;11.70;58.80
20171;DHT22;10245;51.344;6.620;2023-02-15T13:37:08;11.70;59.60
20171;DHT22;10245;51.344;6.620;2023-02-15T13:39:40;11.60;59.90
20171;DHT22;10245;51.344;6.620;2023-02-15T13:42:15;11.70;58.10
20171;DHT22;10245;51.344;6.620;2023-02-15T13:45:10;11.70;59.70
20171;DHT22;10245;51.344;6.620;2023-02-15T13:47:51;11.80;59.40
20171;DHT22;10245;51.344;6.620;2023-02-15T13:50:37;11.80;59.80
20171;DHT22;10245;51.344;6.620;2023-02-15T13:53:23;11.90;60.70
20171;DHT22;10245;51.344;6.620;2023-02-15T13:55:54;12.00;58.60
20171;DHT22;10245;51.344;6.620;2023-02-15T13:58:42;11.90;57.30
20171;DHT22;10245;51.344;6.620;2023-02-15T14:01:21;11.90;58.40
20171;DHT22;10245;51.344;6.620;2023-02-15T14:04:03;11.90;58.20
20171;DHT22;10245;51.344;6.620;2023-02-15T14:07:04;11.90;58.70
20171;DHT22;10245;51.344;6.620;2023-02-15T14:09:40;12.00;58.20
20171;DHT22;10245;51.344;6.620;2023-02-15T14:12:23;12.00;55.90
20171;DHT22;10245;51.344;6.620;2023-02-15T14:15:10;12.00;56.80
20171;DHT22;10245;51.344;6.620;2023-02-15T14:17:51;12.00;57.80
20171;DHT22;10245;51.344;6.620;2023-02-15T14:20:27;12.10;56.70
20171;DHT22;10245;51.344;6.620;2023-02-15T14:23:07;12.10;56.40
20171;DHT22;10245;51.344;6.620;2023-02-15T14:25:42;12.00;58.10
20171;DHT22;10245;51.344;6.620;2023-02-15T14:28:13;12.10;57.30
20171;DHT22;10245;51.344;6.620;2023-02-15T14:30:42;12.10;57.80
20171;DHT22;10245;51.344;6.620;2023-02-15T14:33:25;12.10;57.50
20171;DHT22;10245;51.344;6.620;2023-02-15T14:35:55;12.00;59.70
20171;DHT22;10245;51.344;6.620;2023-02-15T14:38:27;12.00;57.90
20171;DHT22;10245;51.344;6.620;2023-02-15T14:41:04;12.10;57.40
20171;DHT22;10245;51.344;6.620;2023-02-15T14:43:37;12.10;58.20
20171;DHT22;10245;51.344;6.620;2023-02-15T14:46:15;12.00;58.30
20171;DHT22;10245;51.344;6.620;2023-02-15T14:48:46;12.00;59.70
20171;DHT22;10245;51.344;6.620;2023-02-15T14:54:56;11.90;61.30
20171;DHT22;10245;51.344;6.620;2023-02-15T14:57:31;12.00;61.40
20171;DHT22;10245;51.344;6.620;2023-02-15T14:59:59;12.00;58.90
20171;DHT22;10245;51.344;6.620;2023-02-15T15:02:40;12.10;58.30
20171;DHT22;10245;51.344;6.620;2023-02-15T15:05:17;12.10;59.40
20171;DHT22;10245;51.344;6.620;2023-02-15T15:07:44;12.10;58.50
20171;DHT22;10245;51.344;6.620;2023-02-15T15:10:34;12.10;58.30
20171;DHT22;10245;51.344;6.620;2023-02-15T15:13:37;12.20;60.90
20171;DHT22;10245;51.344;6.620;2023-02-15T15:22:35;12.30;59.20
20171;DHT22;10245;51.344;6.620;2023-02-15T15:25:00;12.30;57.80
20171;DHT22;10245;51.344;6.620;2023-02-15T15:27:41;12.40;58.10
20171;DHT22;10245;51.344;6.620;2023-02-15T15:30:48;12.20;59.60
20171;DHT22;10245;51.344;6.620;2023-02-15T15:36:25;12.00;61.00
20171;DHT22;10245;51.344;6.620;2023-02-15T15:39:24;12.00;61.30
20171;DHT22;10245;51.344;6.620;2023-02-15T15:42:07;11.90;61.80
20171;DHT22;10245;51.344;6.620;2023-02-15T15:48:22;11.80;61.80
20171;DHT22;10245;51.344;6.620;2023-02-15T15:50:52;11.60;62.70
20171;DHT22;10245;51.344;6.620;2023-02-15T15:53:20;11.40;63.70
20171;DHT22;10245;51.344;6.620;2023-02-15T15:55:48;11.50;63.30
20171;DHT22;10245;51.344;6.620;2023-02-15T15:58:14;11.40;64.10
20171;DHT22;10245;51.344;6.620;2023-02-15T16:00:42;11.30;63.70
20171;DHT22;10245;51.344;6.620;2023-02-15T16:03:15;11.20;64.20
20171;DHT22;10245;51.344;6.620;2023-02-15T16:05:39;11.10;65.20
20171;DHT22;10245;51.344;6.620;2023-02-15T16:08:03;11.10;65.60
20171;DHT22;10245;51.344;6.620;2023-02-15T16:10:29;11.00;66.20
20171;DHT22;10245;51.344;6.620;2023-02-15T16:12:54;11.00;66.10
20171;DHT22;10245;51.344;6.620;2023-02-15T16:15:22;10.90;66.50
20171;DHT22;10245;51.344;6.620;2023-02-15T16:17:49;10.90;66.40